createdAt,value
2019-06-10T00:00:17.950Z,12.35
2019-06-10T00:02:53.694Z,9.48
2019-06-10T00:06:32.517Z,10.72
2019-06-10T00:08:50.650Z,6.65
2019-06-10T00:11:24.144Z,4.87
2019-06-10T00:13:57.080Z,6.83
2019-06-10T00:16:31.406Z,7.67
2019-06-10T00:19:09.556Z,11.80
2019-06-10T00:21:42.301Z,5.20
2019-06-10T00:24:15.647Z,6.95
2019-06-10T00:26:50.871Z,6.53
2019-06-10T00:29:23.253Z,7.22
2019-06-10T00:31:58.269Z,16.50
2019-06-10T00:34:35.012Z,4.08
2019-06-10T00:37:09.221Z,6.03
2019-06-10T00:39:41.615Z,4.42
2019-06-10T00:42:15.424Z,6.47
2019-06-10T00:44:50.786Z,6.33
2019-06-10T00:47:24.751Z,9.15
2019-06-10T00:49:57.755Z,4.55
2019-06-10T00:52:31.054Z,6.85
2019-06-10T00:55:04.871Z,14.25
2019-06-10T00:57:41.700Z,9.08
2019-06-10T01:00:25.198Z,5.30
2019-06-10T01:02:51.793Z,9.65
2019-06-10T01:05:25.275Z,7.45
2019-06-10T01:07:58.346Z,6.37
2019-06-10T01:10:31.728Z,4.55
2019-06-10T01:13:05.114Z,6.00
2019-06-10T01:15:38.396Z,3.12
2019-06-10T01:18:28.686Z,8.35
2019-06-10T01:20:46.236Z,8.60
2019-06-10T01:23:21.650Z,10.15
2019-06-10T01:25:57.067Z,7.35
2019-06-10T01:28:31.374Z,4.35
2019-06-10T01:31:12.114Z,7.22
2019-06-10T01:33:44.412Z,4.35
2019-06-10T01:36:21.075Z,3.80
2019-06-10T01:38:55.541Z,4.85
2019-06-10T01:41:30.590Z,4.85
2019-06-10T01:44:03.739Z,3.15
2019-06-10T01:46:36.703Z,9.28
2019-06-10T01:49:12.914Z,5.72
2019-06-10T01:51:51.553Z,5.85
2019-06-10T01:54:25.183Z,8.38
2019-06-10T01:56:58.103Z,6.35
2019-06-10T01:59:31.347Z,3.87
2019-06-10T02:02:09.793Z,5.42
2019-06-10T02:04:43.227Z,9.78
2019-06-10T02:07:18.464Z,6.67
2019-06-10T02:09:51.816Z,6.05
2019-06-10T02:12:24.884Z,5.25
2019-06-10T02:14:57.978Z,6.25
2019-06-10T02:17:31.458Z,9.00
2019-06-10T02:20:05.031Z,9.63
2019-06-10T02:22:40.951Z,7.53
2019-06-10T02:25:14.878Z,6.65
2019-06-10T02:27:50.634Z,4.67
2019-06-10T02:30:38.969Z,7.40
2019-06-10T02:32:57.623Z,4.80
2019-06-10T02:35:43.992Z,7.65
2019-06-10T02:38:05.348Z,5.87
2019-06-10T02:40:38.234Z,9.05
2019-06-10T02:43:16.065Z,8.88
2019-06-10T02:45:47.493Z,7.35
2019-06-10T02:48:27.068Z,5.97
2019-06-10T02:51:30.781Z,5.87
2019-06-10T02:54:05.114Z,8.35
2019-06-10T02:56:38.323Z,4.70
2019-06-10T02:59:13.285Z,5.95
2019-06-10T03:01:46.092Z,9.43
2019-06-10T03:04:22.157Z,9.70
2019-06-10T03:06:54.414Z,5.83
2019-06-10T03:09:31.834Z,8.20
2019-06-10T03:12:04.814Z,4.47
2019-06-10T03:14:37.156Z,4.92
2019-06-10T03:17:13.824Z,7.72
2019-06-10T03:19:50.517Z,4.70
2019-06-10T03:22:22.977Z,5.47
2019-06-10T03:24:56.005Z,8.05
2019-06-10T03:27:29.117Z,4.55
2019-06-10T03:30:14.713Z,7.08
2019-06-10T03:32:42.632Z,10.25
2019-06-10T03:35:13.252Z,5.72
2019-06-10T03:37:46.347Z,8.50
2019-06-10T03:40:20.529Z,8.05
2019-06-10T03:42:53.908Z,4.92
2019-06-10T03:45:28.396Z,5.45
2019-06-10T03:48:03.662Z,10.03
2019-06-10T03:50:36.382Z,4.83
2019-06-10T03:53:09.381Z,6.10
2019-06-10T03:55:42.451Z,5.83
2019-06-10T03:58:15.560Z,7.28
2019-06-10T04:00:48.587Z,10.08
2019-06-10T04:03:24.279Z,6.45
2019-06-10T04:05:56.229Z,6.80
2019-06-10T04:08:32.931Z,10.35
2019-06-10T04:11:05.565Z,9.55
2019-06-10T04:13:38.421Z,6.80
2019-06-10T04:16:13.009Z,6.25
2019-06-10T04:18:45.962Z,5.15
2019-06-10T04:21:20.327Z,10.32
2019-06-10T04:23:53.431Z,8.88
2019-06-10T04:26:28.198Z,6.55
2019-06-10T04:29:02.464Z,5.50
2019-06-10T04:31:36.577Z,11.18
2019-06-10T04:34:09.471Z,19.10
2019-06-10T04:36:42.537Z,12.25
2019-06-10T04:39:15.449Z,9.45
2019-06-10T04:41:48.366Z,9.45
2019-06-10T04:44:23.545Z,10.13
2019-06-10T04:46:55.841Z,11.33
2019-06-10T04:49:29.825Z,12.45
2019-06-10T04:52:03.250Z,9.03
2019-06-10T04:54:36.329Z,6.45
2019-06-10T04:57:09.470Z,5.97
2019-06-10T04:59:42.938Z,9.45
2019-06-10T05:02:15.792Z,6.17
2019-06-10T05:04:49.657Z,9.78
2019-06-10T05:07:24.042Z,8.08
2019-06-10T05:09:57.345Z,6.90
2019-06-10T05:12:32.326Z,9.58
2019-06-10T05:15:04.794Z,8.20
2019-06-10T05:17:37.625Z,8.80
2019-06-10T05:20:12.530Z,7.25
2019-06-10T05:22:45.606Z,6.42
2019-06-10T05:25:19.742Z,8.45
2019-06-10T05:27:54.055Z,8.43
2019-06-10T05:30:28.183Z,20.60
2019-06-10T05:33:02.955Z,10.80
2019-06-10T05:35:36.146Z,11.28
2019-06-10T05:38:09.044Z,10.40
2019-06-10T05:40:42.749Z,7.92
2019-06-10T05:43:15.864Z,8.30
2019-06-10T05:45:48.839Z,7.67
2019-06-10T05:48:22.672Z,9.63
2019-06-10T05:51:02.598Z,11.70
2019-06-10T05:53:33.577Z,6.33
2019-06-10T05:56:05.648Z,13.98
2019-06-10T05:58:38.478Z,10.25
2019-06-10T06:01:13.222Z,10.50
2019-06-10T06:03:46.147Z,16.15
2019-06-10T06:06:19.115Z,15.35
2019-06-10T06:08:53.389Z,13.18
2019-06-10T06:11:27.359Z,17.98
2019-06-10T06:14:02.755Z,9.28
2019-06-10T06:16:36.247Z,11.08
2019-06-10T06:19:09.399Z,10.18
2019-06-10T06:21:47.417Z,7.60
2019-06-10T06:24:16.856Z,10.40
2019-06-10T06:26:49.918Z,5.87
2019-06-10T06:29:22.781Z,12.90
2019-06-10T06:31:55.730Z,6.67
2019-06-10T06:34:28.837Z,9.03
2019-06-10T06:37:02.238Z,12.18
2019-06-10T06:39:36.695Z,10.10
2019-06-10T06:42:12.558Z,11.03
2019-06-10T06:44:44.840Z,13.18
2019-06-10T06:47:17.775Z,8.75
2019-06-10T06:49:53.031Z,9.60
2019-06-10T06:52:46.407Z,14.75
2019-06-10T06:55:02.464Z,9.28
2019-06-10T06:57:36.762Z,9.85
2019-06-10T07:00:35.331Z,12.75
2019-06-10T07:02:46.265Z,8.18
2019-06-10T07:05:19.161Z,11.40
2019-06-10T07:07:52.905Z,12.05
2019-06-10T07:10:26.082Z,14.05
2019-06-10T07:13:02.871Z,13.38
2019-06-10T07:15:48.062Z,14.05
2019-06-10T07:18:23.156Z,14.65
2019-06-10T07:20:55.637Z,11.68
2019-06-10T07:23:28.548Z,10.38
2019-06-10T07:26:02.286Z,10.65
2019-06-10T07:28:37.490Z,11.35
2019-06-10T07:31:20.882Z,11.97
2019-06-10T07:33:47.250Z,11.38
2019-06-10T07:36:19.922Z,9.20
2019-06-10T07:38:53.934Z,12.98
2019-06-10T07:41:27.062Z,9.43
2019-06-10T07:43:59.908Z,13.95
2019-06-10T07:46:33.592Z,19.12
2019-06-10T07:49:07.565Z,13.95
2019-06-10T07:51:42.131Z,19.98
2019-06-10T07:54:15.418Z,11.38
2019-06-10T07:56:50.570Z,13.20
2019-06-10T07:59:23.362Z,11.68
2019-06-10T08:01:56.616Z,12.65
2019-06-10T08:04:29.694Z,17.62
2019-06-10T08:07:03.331Z,12.43
2019-06-10T08:09:37.340Z,14.23
2019-06-10T08:12:12.612Z,13.28
2019-06-10T08:14:45.777Z,16.10
2019-06-10T08:17:18.744Z,14.73
2019-06-10T08:19:54.062Z,11.70
2019-06-10T08:22:33.497Z,11.25
2019-06-10T08:25:04.945Z,9.30
2019-06-10T08:27:36.607Z,13.38
2019-06-10T08:30:18.593Z,14.73
2019-06-10T08:32:47.156Z,13.65
2019-06-10T08:35:35.003Z,11.95
2019-06-10T08:37:54.257Z,11.38
2019-06-10T08:40:27.458Z,10.53
2019-06-10T08:43:04.016Z,12.15
2019-06-10T08:45:36.887Z,10.30
2019-06-10T08:48:09.857Z,12.98
2019-06-10T08:50:46.612Z,12.28
2019-06-10T08:53:18.193Z,13.98
2019-06-10T08:55:53.470Z,21.52
2019-06-10T08:58:25.874Z,10.88
2019-06-10T09:00:59.122Z,15.98
2019-06-10T09:03:32.507Z,16.48
2019-06-10T09:06:05.615Z,11.18
2019-06-10T09:08:40.854Z,14.03
2019-06-10T09:11:13.275Z,12.37
2019-06-10T09:13:48.062Z,11.53
2019-06-10T09:16:22.903Z,12.37
2019-06-10T09:18:55.646Z,28.42
2019-06-10T09:21:28.515Z,13.43
2019-06-10T09:24:03.931Z,19.73
2019-06-10T09:26:36.312Z,8.30
2019-06-10T09:29:09.168Z,19.77
2019-06-10T09:31:46.718Z,9.95
2019-06-10T09:34:16.511Z,10.78
2019-06-10T09:36:54.059Z,14.95
2019-06-10T09:39:24.100Z,13.93
2019-06-10T09:42:02.664Z,11.35
2019-06-10T09:44:33.362Z,19.15
2019-06-10T09:47:07.037Z,14.83
2019-06-10T09:49:45.334Z,9.03
2019-06-10T09:52:15.918Z,15.08
2019-06-10T09:54:55.706Z,15.45
2019-06-10T09:57:23.962Z,9.58
2019-06-10T09:59:56.890Z,10.25
2019-06-10T10:02:29.832Z,12.23
2019-06-10T10:05:02.958Z,14.18
2019-06-10T10:07:36.627Z,10.80
2019-06-10T10:10:12.866Z,10.28
2019-06-10T10:12:47.556Z,10.45
2019-06-10T10:15:27.465Z,13.28
2019-06-10T10:17:56.392Z,9.93
2019-06-10T10:20:29.733Z,19.05
2019-06-10T10:23:02.850Z,14.20
2019-06-10T10:25:35.777Z,11.95
2019-06-10T10:28:08.896Z,13.70
2019-06-10T10:30:45.527Z,15.93
2019-06-10T10:33:18.973Z,11.55
2019-06-10T10:35:52.643Z,10.82
2019-06-10T10:38:25.530Z,12.95
2019-06-10T10:40:59.344Z,9.55
2019-06-10T10:43:36.954Z,11.93
2019-06-10T10:46:07.352Z,11.00
2019-06-10T10:48:40.313Z,10.53
2019-06-10T10:51:13.434Z,14.53
2019-06-10T10:53:50.567Z,11.90
2019-06-10T10:56:22.331Z,15.98
2019-06-10T10:58:58.549Z,11.08
2019-06-10T11:01:33.376Z,13.30
2019-06-10T11:04:06.509Z,13.40
2019-06-10T11:06:39.392Z,17.73
2019-06-10T11:09:12.982Z,14.03
2019-06-10T11:11:47.213Z,23.45
2019-06-10T11:14:22.862Z,19.40
2019-06-10T11:16:57.050Z,13.62
2019-06-10T11:19:29.431Z,17.67
2019-06-10T11:22:03.012Z,11.35
2019-06-10T11:24:41.097Z,13.93
2019-06-10T11:27:12.751Z,12.35
2019-06-10T11:29:46.155Z,8.70
2019-06-10T11:32:19.169Z,13.58
2019-06-10T11:34:56.548Z,11.63
2019-06-10T11:37:27.814Z,9.80
2019-06-10T11:40:02.914Z,11.90
2019-06-10T11:42:35.360Z,12.43
2019-06-10T11:45:08.822Z,11.78
2019-06-10T11:47:43.138Z,10.00
2019-06-10T11:50:17.529Z,9.18
2019-06-10T11:52:55.435Z,11.55
2019-06-10T11:55:25.233Z,10.28
2019-06-10T11:57:59.326Z,8.75
2019-06-10T12:00:33.318Z,14.55
2019-06-10T12:03:07.850Z,19.70
2019-06-10T12:05:40.847Z,13.20
2019-06-10T12:08:13.741Z,11.80
2019-06-10T12:10:46.664Z,13.38
2019-06-10T12:13:22.462Z,8.48
2019-06-10T12:16:34.942Z,10.15
2019-06-10T12:18:29.057Z,12.25
2019-06-10T12:21:03.681Z,13.90
2019-06-10T12:23:36.906Z,9.48
2019-06-10T12:26:09.963Z,9.40
2019-06-10T12:28:43.313Z,13.95
2019-06-10T12:31:16.399Z,12.63
2019-06-10T12:33:51.142Z,11.93
2019-06-10T12:36:24.537Z,15.45
2019-06-10T12:39:02.345Z,11.60
2019-06-10T12:41:33.945Z,10.53
2019-06-10T12:44:09.062Z,16.27
2019-06-10T12:46:43.198Z,16.60
2019-06-10T12:49:18.489Z,8.98
2019-06-10T12:51:52.894Z,13.40
2019-06-10T12:54:27.403Z,10.38
2019-06-10T12:57:00.687Z,11.53
2019-06-10T12:59:34.647Z,10.48
2019-06-10T13:02:19.028Z,12.40
2019-06-10T13:04:45.270Z,10.70
2019-06-10T13:07:19.587Z,15.80
2019-06-10T13:09:57.784Z,11.33
2019-06-10T13:12:33.247Z,13.20
2019-06-10T13:15:08.907Z,10.18
2019-06-10T13:17:43.976Z,9.20
2019-06-10T13:20:16.913Z,12.85
2019-06-10T13:22:49.880Z,12.23
2019-06-10T13:25:24.385Z,11.22
2019-06-10T13:27:57.756Z,9.73
2019-06-10T13:30:34.169Z,13.28
2019-06-10T13:33:10.787Z,11.97
2019-06-10T13:35:41.747Z,10.93
2019-06-10T13:38:15.642Z,14.33
2019-06-10T13:40:48.616Z,12.55
2019-06-10T13:43:23.109Z,11.60
2019-06-10T13:45:56.387Z,8.33
2019-06-10T13:48:29.392Z,14.55
2019-06-10T13:51:08.263Z,13.58
2019-06-10T13:53:37.025Z,10.45
2019-06-10T13:56:37.027Z,19.12
2019-06-10T13:58:46.190Z,14.47
2019-06-10T14:01:21.910Z,9.03
2019-06-10T14:03:53.977Z,9.98
2019-06-10T14:06:44.592Z,12.35
2019-06-10T14:09:06.817Z,11.78
2019-06-10T14:11:38.500Z,14.35
2019-06-10T14:14:14.754Z,13.83
2019-06-10T14:16:46.275Z,12.28
2019-06-10T14:19:23.057Z,11.00
2019-06-10T14:21:55.291Z,14.73
2019-06-10T14:24:28.388Z,10.82
2019-06-10T14:27:04.255Z,13.25
2019-06-10T14:29:35.984Z,12.00
2019-06-10T14:32:09.243Z,8.55
2019-06-10T14:34:42.572Z,12.30
2019-06-10T14:37:29.663Z,15.08
2019-06-10T14:39:52.942Z,25.62
2019-06-10T14:42:26.046Z,12.45
2019-06-10T14:44:59.397Z,10.85
2019-06-10T14:47:32.568Z,13.28
2019-06-10T14:50:06.861Z,12.10
2019-06-10T14:52:39.936Z,15.15
2019-06-10T14:55:16.614Z,25.95
2019-06-10T14:57:48.074Z,11.88
2019-06-10T15:00:23.625Z,10.30
2019-06-10T15:02:56.478Z,14.58
2019-06-10T15:05:29.655Z,13.65
2019-06-10T15:08:03.299Z,14.18
2019-06-10T15:10:36.304Z,17.17
2019-06-10T15:13:09.725Z,10.45
2019-06-10T15:15:42.731Z,11.53
2019-06-10T15:18:18.023Z,10.88
2019-06-10T15:20:53.130Z,10.60
2019-06-10T15:23:25.324Z,12.23
2019-06-10T15:25:58.157Z,16.23
2019-06-10T15:28:31.142Z,17.00
2019-06-10T15:31:05.643Z,10.63
2019-06-10T15:33:38.750Z,14.93
2019-06-10T15:36:13.069Z,15.98
2019-06-10T15:38:46.624Z,12.07
2019-06-10T15:41:21.330Z,9.95
2019-06-10T15:43:54.206Z,12.68
2019-06-10T15:46:27.110Z,10.32
2019-06-10T15:49:02.343Z,8.03
2019-06-10T15:51:35.745Z,11.18
2019-06-10T15:54:10.686Z,9.90
2019-06-10T15:56:52.944Z,13.88
2019-06-10T15:59:23.310Z,14.73
2019-06-10T16:01:57.380Z,14.58
2019-06-10T16:04:34.875Z,13.62
2019-06-10T16:07:06.057Z,13.53
2019-06-10T16:09:38.997Z,10.18
2019-06-10T16:12:14.353Z,9.63
2019-06-10T16:14:46.588Z,11.90
2019-06-10T16:17:19.478Z,15.18
2019-06-10T16:19:53.153Z,10.05
2019-06-10T16:22:27.236Z,19.67
2019-06-10T16:25:00.228Z,11.48
2019-06-10T16:27:46.389Z,16.12
2019-06-10T16:30:08.821Z,14.00
2019-06-10T16:32:41.612Z,10.43
2019-06-10T16:35:14.816Z,13.35
2019-06-10T16:37:48.110Z,11.38
2019-06-10T16:40:21.795Z,17.02
2019-06-10T16:42:55.753Z,11.38
2019-06-10T16:45:30.834Z,15.08
2019-06-10T16:48:03.431Z,14.47
2019-06-10T16:50:36.338Z,16.02
2019-06-10T16:53:09.510Z,17.65
2019-06-10T16:55:43.516Z,17.87
2019-06-10T16:58:18.215Z,14.78
2019-06-10T17:00:52.438Z,15.40
2019-06-10T17:03:27.242Z,16.97
2019-06-10T17:06:02.508Z,22.98
2019-06-10T17:08:36.184Z,23.57
2019-06-10T17:11:13.067Z,14.45
2019-06-10T17:13:46.147Z,11.65
2019-06-10T17:16:20.892Z,15.32
2019-06-10T17:18:58.137Z,16.70
2019-06-10T17:21:34.707Z,13.78
2019-06-10T17:24:12.630Z,15.40
2019-06-10T17:26:44.217Z,14.75
2019-06-10T17:29:17.379Z,20.40
2019-06-10T17:31:53.148Z,16.02
2019-06-10T17:34:31.397Z,14.38
2019-06-10T17:37:04.528Z,14.10
2019-06-10T17:39:37.620Z,14.83
2019-06-10T17:42:16.814Z,13.55
2019-06-10T17:44:53.006Z,14.47
2019-06-10T17:47:27.748Z,16.32
2019-06-10T17:50:04.045Z,9.98
2019-06-10T17:52:39.019Z,14.87
2019-06-10T17:55:12.692Z,13.50
2019-06-10T17:57:50.483Z,14.68
2019-06-10T18:00:26.526Z,15.38
2019-06-10T18:03:03.721Z,23.35
2019-06-10T18:05:38.861Z,21.33
2019-06-10T18:08:13.090Z,21.17
2019-06-10T18:10:53.630Z,19.17
2019-06-10T18:13:30.082Z,15.32
2019-06-10T18:16:05.400Z,14.50
2019-06-10T18:18:38.777Z,15.28
2019-06-10T18:21:14.512Z,20.37
2019-06-10T18:23:55.747Z,12.05
2019-06-10T18:26:35.926Z,16.90
2019-06-10T18:29:09.529Z,14.55
2019-06-10T18:31:43.528Z,13.48
2019-06-10T18:34:16.954Z,20.60
2019-06-10T18:36:52.125Z,15.78
2019-06-10T18:39:27.732Z,15.25
2019-06-10T18:42:03.194Z,17.42
2019-06-10T18:44:37.551Z,13.05
2019-06-10T18:47:13.480Z,21.30
2019-06-10T18:49:46.767Z,12.40
2019-06-10T18:52:23.295Z,16.12
2019-06-10T18:54:57.633Z,21.93
2019-06-10T18:57:36.153Z,13.70
2019-06-10T19:00:14.688Z,15.50
2019-06-10T19:02:46.859Z,21.68
2019-06-10T19:05:24.274Z,15.58
2019-06-10T19:07:58.631Z,20.02
2019-06-10T19:10:35.277Z,20.70
2019-06-10T19:13:07.923Z,22.27
2019-06-10T19:15:44.537Z,17.67
2019-06-10T19:18:22.935Z,26.85
2019-06-10T19:21:03.827Z,39.55
2019-06-10T19:23:38.222Z,38.58
2019-06-10T19:26:13.471Z,33.55
2019-06-10T19:28:46.441Z,28.83
2019-06-10T19:31:19.687Z,28.83
2019-06-10T19:33:52.738Z,28.60
2019-06-10T19:36:25.732Z,22.02
2019-06-10T19:38:58.848Z,19.48
2019-06-10T19:41:35.741Z,24.57
2019-06-10T19:44:06.859Z,21.35
2019-06-10T19:46:39.843Z,20.17
2019-06-10T19:49:13.363Z,25.77
2019-06-10T19:51:47.708Z,20.75
2019-06-10T19:54:21.050Z,24.47
2019-06-10T19:56:55.732Z,27.07
2019-06-10T19:59:29.087Z,25.35
2019-06-10T20:02:03.355Z,31.70
2019-06-10T20:04:42.822Z,30.50
2019-06-10T20:07:16.954Z,28.40
2019-06-10T20:09:52.248Z,32.28
2019-06-10T20:12:25.255Z,29.70
2019-06-10T20:15:02.217Z,30.43
2019-06-10T20:17:33.428Z,26.70
2019-06-10T20:20:07.881Z,40.85
2019-06-10T20:22:45.478Z,30.43
2019-06-10T20:25:18.736Z,28.90
2019-06-10T20:27:52.374Z,27.20
2019-06-10T20:30:28.984Z,27.62
2019-06-10T20:33:03.406Z,17.32
2019-06-10T20:35:35.415Z,21.97
2019-06-10T20:38:13.087Z,26.75
2019-06-10T20:40:46.041Z,39.78
2019-06-10T20:43:22.280Z,33.98
2019-06-10T20:45:58.155Z,40.03
2019-06-10T20:48:29.840Z,42.23
2019-06-10T20:51:03.300Z,39.75
2019-06-10T20:53:38.066Z,37.53
2019-06-10T20:56:12.475Z,42.78
2019-06-10T20:58:46.792Z,61.10
2019-06-10T21:01:24.751Z,52.90
2019-06-10T21:03:55.239Z,49.27
2019-06-10T21:06:32.546Z,46.98
2019-06-10T21:09:08.368Z,49.03
2019-06-10T21:11:44.868Z,49.38
2019-06-10T21:14:16.386Z,54.80
2019-06-10T21:16:51.095Z,44.05
2019-06-10T21:19:23.946Z,41.25
2019-06-10T21:21:56.971Z,41.02
2019-06-10T21:24:32.216Z,47.30
2019-06-10T21:27:04.593Z,51.15
2019-06-10T21:29:37.500Z,52.88
2019-06-10T21:32:12.438Z,44.20
2019-06-10T21:34:46.568Z,36.03
2019-06-10T21:37:22.573Z,43.45
2019-06-10T21:39:55.600Z,46.60
2019-06-10T21:42:28.620Z,41.28
2019-06-10T21:45:03.467Z,36.65
2019-06-10T21:47:36.025Z,52.83
2019-06-10T21:50:09.323Z,49.10
2019-06-10T21:52:44.033Z,33.65
2019-06-10T21:55:16.897Z,33.30
2019-06-10T21:57:51.565Z,30.40
2019-06-10T22:00:29.760Z,34.78
2019-06-10T22:03:03.056Z,29.72
2019-06-10T22:05:36.029Z,32.80
2019-06-10T22:08:08.941Z,36.45
2019-06-10T22:10:44.209Z,36.42
2019-06-10T22:13:17.461Z,30.97
2019-06-10T22:15:53.443Z,34.30
2019-06-10T22:18:25.165Z,33.38
2019-06-10T22:20:58.184Z,28.42
2019-06-10T22:23:33.115Z,31.45
2019-06-10T22:26:06.329Z,29.48
2019-06-10T22:28:39.587Z,26.35
2019-06-10T22:31:22.362Z,25.43
2019-06-10T22:33:47.251Z,27.20
2019-06-10T22:36:20.214Z,30.08
2019-06-10T22:38:55.784Z,22.60
2019-06-10T22:41:27.883Z,29.95
2019-06-10T22:44:03.324Z,24.02
2019-06-10T22:46:35.645Z,26.23
2019-06-10T22:49:08.591Z,20.77
2019-06-10T22:51:42.837Z,22.13
2019-06-10T22:54:16.119Z,25.60
2019-06-10T22:56:49.426Z,28.55
2019-06-10T22:59:22.947Z,28.17
2019-06-10T23:01:56.976Z,27.22
2019-06-10T23:04:33.136Z,22.80
2019-06-10T23:07:05.455Z,26.10
2019-06-10T23:09:38.454Z,27.62
2019-06-10T23:12:12.036Z,32.20
2019-06-10T23:14:45.231Z,33.48
2019-06-10T23:17:18.167Z,35.50
2019-06-10T23:19:53.568Z,33.38
2019-06-10T23:22:25.672Z,35.35
2019-06-10T23:24:59.842Z,33.30
2019-06-10T23:27:33.622Z,33.13
2019-06-10T23:30:11.445Z,29.42
2019-06-10T23:32:42.340Z,32.67
2019-06-10T23:35:15.561Z,30.45
2019-06-10T23:37:48.780Z,28.40
2019-06-10T23:40:23.370Z,29.77
2019-06-10T23:42:57.183Z,32.23
2019-06-10T23:45:32.600Z,26.07
2019-06-10T23:48:05.198Z,26.87
2019-06-10T23:50:38.179Z,32.63
2019-06-10T23:53:13.246Z,27.45
2019-06-10T23:55:45.767Z,29.75
2019-06-10T23:58:21.932Z,32.08
